Time;durP1;ratioP1;P1;durP2;ratioP2;P2;SDS_P1;SDS_P2;PMS_P1;PMS_P2;Temp;Humidity;BMP_temperature;BMP_pressure;BME280_temperature;BME280_humidity;BME280_pressure;Samples;Min_cycle;Max_cycle;Signal;HPM_P1;HPM_P2
2020/12/15 00:00:32;;;;;;;3.03;2.13;;;;;;;4.48;73.43;95086.97;5075463;28;20191;-77
2020/12/15 00:02:57;;;;;;;3.23;2.70;;;;;;;4.58;73.48;95085.28;5076898;28;20203;-78
2020/12/15 00:05:22;;;;;;;2.97;2.67;;;;;;;4.52;73.31;95084.06;5077374;28;20637;-79
2020/12/15 00:07:48;;;;;;;2.83;2.30;;;;;;;4.48;73.88;95077.50;5060553;28;20196;-78
2020/12/15 00:10:13;;;;;;;2.83;2.53;;;;;;;4.49;73.33;95080.88;5091217;28;20210;-79
2020/12/15 00:12:38;;;;;;;4.67;2.30;;;;;;;4.43;74.24;95084.78;5060103;28;20177;-78
2020/12/15 00:15:04;;;;;;;2.30;2.10;;;;;;;4.43;73.91;95089.91;5058579;28;20196;-78
2020/12/15 00:17:29;;;;;;;3.37;2.10;;;;;;;4.48;73.54;95077.50;5056810;28;20267;-78
2020/12/15 00:19:54;;;;;;;1.80;1.70;;;;;;;4.49;74.01;95083.47;5039521;28;20180;-78
2020/12/15 00:22:20;;;;;;;2.10;1.90;;;;;;;4.56;73.51;95087.19;5057005;28;20177;-79
2020/12/15 00:24:45;;;;;;;2.20;2.00;;;;;;;4.60;73.03;95080.06;5057327;28;20196;-78
2020/12/15 00:27:10;;;;;;;2.10;1.90;;;;;;;4.59;73.14;95081.78;5073237;28;20650;-79
2020/12/15 00:29:36;;;;;;;2.30;1.63;;;;;;;4.60;73.19;95074.91;5039921;28;20193;-78
2020/12/15 00:32:03;;;;;;;2.60;2.20;;;;;;;4.58;73.23;95082.72;5039953;28;20185;-79
2020/12/15 00:34:28;;;;;;;2.60;2.17;;;;;;;4.54;73.41;95087.31;5040170;28;20205;-78
2020/12/15 00:36:57;;;;;;;2.43;2.17;;;;;;;4.50;73.89;95085.91;5064501;28;20208;-78
2020/12/15 00:39:22;;;;;;;2.20;2.00;;;;;;;4.40;73.96;95082.44;5058324;28;20181;-78
2020/12/15 00:41:48;;;;;;;2.30;1.87;;;;;;;4.43;73.79;95092.50;5059844;28;20176;-78
2020/12/15 00:44:14;;;;;;;3.20;1.90;;;;;;;4.44;73.84;95101.03;5076733;28;20208;-79
2020/12/15 00:46:39;;;;;;;1.60;1.50;;;;;;;4.48;73.79;95092.13;5073174;28;20713;-78
2020/12/15 00:49:05;;;;;;;2.37;2.17;;;;;;;4.51;73.96;95086.75;5059603;28;20689;-78
2020/12/15 00:51:30;;;;;;;2.50;2.20;;;;;;;4.44;74.17;95083.84;5094563;28;20180;-79
2020/12/15 00:53:55;;;;;;;2.77;2.10;;;;;;;4.33;74.48;95083.03;5094919;28;20200;-78
2020/12/15 00:56:20;;;;;;;2.93;2.40;;;;;;;4.28;74.99;95069.75;5072845;28;20224;-78
2020/12/15 00:58:46;;;;;;;2.83;2.20;;;;;;;4.25;74.74;95052.81;5073106;28;20636;-78
2020/12/15 01:01:12;;;;;;;2.37;2.10;;;;;;;4.25;75.00;95073.38;5074578;28;20181;-78
2020/12/15 01:03:37;;;;;;;2.50;2.30;;;;;;;4.19;75.39;95077.22;5056452;28;20214;-78
2020/12/15 01:06:03;;;;;;;2.47;2.10;;;;;;;4.23;75.43;95085.50;5062657;28;20238;-79
2020/12/15 01:08:29;;;;;;;2.93;1.97;;;;;;;4.16;75.61;95084.38;5067892;28;20180;-80
2020/12/15 01:10:54;;;;;;;2.10;1.80;;;;;;;4.13;75.55;95085.41;5076044;28;20184;-79
2020/12/15 01:13:19;;;;;;;2.53;1.90;;;;;;;4.17;76.05;95075.72;5076401;28;20193;-78
2020/12/15 01:15:45;;;;;;;3.70;2.50;;;;;;;4.17;75.49;95078.31;5057334;28;20172;-79
2020/12/15 01:18:10;;;;;;;4.10;2.30;;;;;;;4.14;75.91;95081.91;5074852;28;20215;-78
2020/12/15 01:20:35;;;;;;;3.00;2.20;;;;;;;4.12;75.92;95076.06;5076100;28;20256;-78
2020/12/15 01:23:01;;;;;;;2.77;2.43;;;;;;;4.12;76.40;95081.22;5059119;28;20253;-78
2020/12/15 01:25:26;;;;;;;2.27;1.90;;;;;;;4.19;76.28;95079.00;5076149;28;20175;-78
2020/12/15 01:27:51;;;;;;;2.57;2.23;;;;;;;4.22;76.35;95065.88;5058176;28;20187;-79
2020/12/15 01:30:17;;;;;;;2.53;2.10;;;;;;;4.15;76.55;95063.00;5058508;28;20196;-78
2020/12/15 01:32:42;;;;;;;2.40;2.20;;;;;;;4.18;76.47;95052.47;5075903;28;20204;-78
2020/12/15 01:35:07;;;;;;;2.20;2.00;;;;;;;4.17;76.40;95057.75;5076028;28;20249;-78
2020/12/15 01:37:34;;;;;;;2.30;2.00;;;;;;;4.18;76.82;95070.47;5072889;28;20540;-78
2020/12/15 01:39:59;;;;;;;2.43;2.03;;;;;;;4.13;76.52;95067.44;5084225;28;20176;-78
2020/12/15 01:42:24;;;;;;;4.37;2.07;;;;;;;4.11;77.23;95071.06;5076071;28;20180;-78
2020/12/15 01:44:50;;;;;;;2.13;1.80;;;;;;;4.10;77.69;95082.28;5095754;28;20207;-78
2020/12/15 01:47:16;;;;;;;2.20;2.00;;;;;;;4.13;77.40;95076.91;5096178;28;20183;-78
2020/12/15 01:49:42;;;;;;;1.83;1.50;;;;;;;4.20;76.77;95081.44;5073536;28;20233;-78
2020/12/15 01:52:08;;;;;;;1.70;1.60;;;;;;;4.30;76.34;95083.28;5072530;28;20219;-79
2020/12/15 01:54:33;;;;;;;2.27;1.87;;;;;;;4.40;76.07;95079.84;5055325;28;20236;-79
2020/12/15 01:56:59;;;;;;;2.33;1.70;;;;;;;4.45;76.20;95077.75;5073850;28;20247;-78
2020/12/15 01:59:24;;;;;;;1.90;1.50;;;;;;;4.53;75.52;95087.44;5057359;28;20188;-78
2020/12/15 02:01:49;;;;;;;1.53;1.30;;;;;;;4.60;75.14;95086.00;5075336;28;20184;-79
2020/12/15 02:04:15;;;;;;;2.23;1.47;;;;;;;4.63;75.00;95072.91;5075129;28;20295;-78
2020/12/15 02:06:44;;;;;;;1.70;1.20;;;;;;;4.75;74.66;95084.75;5093456;28;20629;-78
2020/12/15 02:09:09;;;;;;;1.87;1.20;;;;;;;4.68;75.00;95086.22;5089477;28;20173;-79
2020/12/15 02:11:35;;;;;;;1.60;1.30;;;;;;;4.69;74.85;95090.41;5075006;28;20526;-78
2020/12/15 02:14:00;;;;;;;2.30;1.20;;;;;;;4.70;74.94;95092.06;5058499;28;20207;-78
2020/12/15 02:16:26;;;;;;;1.70;1.20;;;;;;;4.80;74.78;95089.56;5058146;28;20181;-78
2020/12/15 02:18:52;;;;;;;2.87;1.10;;;;;;;4.86;74.27;95091.63;5091875;28;20176;-78
2020/12/15 02:21:17;;;;;;;1.30;1.13;;;;;;;4.84;74.34;95091.75;5071112;28;20192;-78
2020/12/15 02:23:42;;;;;;;1.57;0.93;;;;;;;4.89;74.38;95090.56;5058175;28;20238;-78
2020/12/15 02:26:09;;;;;;;1.73;1.30;;;;;;;4.90;74.32;95087.06;5058072;28;20569;-78
2020/12/15 02:28:34;;;;;;;1.53;1.17;;;;;;;4.83;75.03;95084.97;5074531;28;20242;-79
2020/12/15 02:31:00;;;;;;;1.50;1.10;;;;;;;4.79;75.09;95081.03;5088284;28;20181;-79
2020/12/15 02:33:26;;;;;;;1.70;1.07;;;;;;;4.77;75.30;95080.34;5083146;28;20687;-78
2020/12/15 02:35:51;;;;;;;1.10;1.00;;;;;;;4.76;75.10;95077.84;5074873;28;20184;-78
2020/12/15 02:38:17;;;;;;;2.57;1.10;;;;;;;4.78;74.96;95076.00;5074869;28;20184;-79
2020/12/15 02:40:42;;;;;;;1.83;1.13;;;;;;;4.76;75.81;95072.72;5074822;28;20169;-79
2020/12/15 02:43:07;;;;;;;3.57;1.10;;;;;;;4.77;76.04;95061.47;5072550;28;20873;-78
2020/12/15 02:45:33;;;;;;;1.20;1.00;;;;;;;4.81;77.07;95050.84;5071366;28;20206;-78
2020/12/15 02:47:58;;;;;;;2.50;1.90;;;;;;;5.01;77.54;95054.34;5071048;28;20181;-79
2020/12/15 02:50:25;;;;;;;4.20;2.90;;;;;;;4.73;76.72;95044.69;5054257;28;20204;-79
2020/12/15 02:52:50;;;;;;;5.37;3.27;;;;;;;4.59;76.99;95045.78;5046410;28;20208;-78
2020/12/15 02:55:16;;;;;;;3.80;3.07;;;;;;;4.57;77.04;95045.09;5070358;28;20243;-80
2020/12/15 02:57:41;;;;;;;3.33;2.97;;;;;;;4.42;77.46;95038.63;5054611;28;20656;-77
2020/12/15 03:00:08;;;;;;;2.77;2.53;;;;;;;4.30;78.95;95035.25;5054446;28;20181;-79
2020/12/15 03:02:34;;;;;;;2.50;2.30;;;;;;;4.24;79.25;95033.16;5053743;28;20651;-78
2020/12/15 03:04:59;;;;;;;2.57;2.33;;;;;;;4.20;80.21;95032.59;5072740;28;20200;-78
2020/12/15 03:07:24;;;;;;;2.73;2.53;;;;;;;4.20;80.67;95021.50;5071063;28;20181;-78
2020/12/15 03:09:50;;;;;;;13.13;6.03;;;;;;;4.21;81.05;95020.56;5053635;28;20180;-78
2020/12/15 03:12:15;;;;;;;19.63;9.33;;;;;;;4.20;81.69;95021.50;5054305;28;20254;-79
2020/12/15 03:14:40;;;;;;;7.47;4.07;;;;;;;4.21;81.96;95020.56;5066351;28;20204;-78
2020/12/15 03:17:05;;;;;;;4.67;3.23;;;;;;;4.19;81.33;95022.44;5092128;28;20181;-78
2020/12/15 03:19:31;;;;;;;4.10;3.00;;;;;;;4.18;81.90;95019.06;5057017;28;20211;-79
2020/12/15 03:21:56;;;;;;;3.27;2.87;;;;;;;4.19;82.29;95018.13;5074881;28;20172;-79
2020/12/15 03:24:21;;;;;;;10.50;5.03;;;;;;;4.21;83.78;95005.97;5055912;28;20243;-79
2020/12/15 03:26:47;;;;;;;5.40;4.40;;;;;;;4.22;84.45;94988.78;5057712;28;20225;-78
2020/12/15 03:29:12;;;;;;;6.93;4.87;;;;;;;4.17;84.77;94989.16;5057584;28;20188;-79
2020/12/15 03:31:37;;;;;;;7.73;5.07;;;;;;;4.15;84.05;94998.75;5074561;28;20217;-79
2020/12/15 03:34:03;;;;;;;8.13;4.90;;;;;;;4.17;84.93;95012.31;5074278;28;20193;-78
2020/12/15 03:36:29;;;;;;;4.23;3.50;;;;;;;4.14;84.77;95022.81;5055776;28;20626;-80
2020/12/15 03:38:54;;;;;;;4.30;3.30;;;;;;;4.15;84.76;95021.91;5074244;28;20191;-79
2020/12/15 03:41:20;;;;;;;4.20;2.50;;;;;;;4.19;84.28;95035.31;5092250;28;20177;-78
2020/12/15 03:43:45;;;;;;;3.20;2.30;;;;;;;4.20;84.39;95040.31;5092084;28;20205;-79
2020/12/15 03:46:10;;;;;;;2.57;1.90;;;;;;;4.23;84.63;95046.97;5067023;28;20184;-78
2020/12/15 03:48:35;;;;;;;2.20;1.87;;;;;;;4.26;85.65;95052.69;5053079;28;20271;-78
2020/12/15 03:51:01;;;;;;;3.43;1.97;;;;;;;4.45;85.19;95048.66;5036654;28;20555;-78
2020/12/15 03:53:26;;;;;;;4.07;1.97;;;;;;;4.34;84.97;95048.69;5053808;28;20193;-78
2020/12/15 03:55:51;;;;;;;2.50;2.20;;;;;;;4.35;85.33;95045.19;5061848;28;20235;-79
2020/12/15 03:58:17;;;;;;;3.67;3.37;;;;;;;4.30;84.58;95047.28;5066684;28;20185;-79
2020/12/15 04:00:43;;;;;;;3.63;3.07;;;;;;;4.16;84.59;95056.94;5074315;28;20291;-78
2020/12/15 04:03:09;;;;;;;3.23;2.80;;;;;;;4.06;84.09;95070.59;5077478;28;20200;-78
2020/12/15 04:05:35;;;;;;;4.77;2.70;;;;;;;4.09;84.47;95066.03;5060787;28;20272;-79
2020/12/15 04:08:01;;;;;;;3.83;2.70;;;;;;;4.06;84.19;95060.31;5058836;28;20240;-79
2020/12/15 04:10:27;;;;;;;3.07;2.73;;;;;;;4.00;84.37;95058.25;5059749;28;20184;-78
2020/12/15 04:12:52;;;;;;;2.40;2.20;;;;;;;4.00;84.20;95065.94;5077264;28;20229;-78
2020/12/15 04:15:17;;;;;;;5.00;2.70;;;;;;;3.99;84.38;95075.41;5060449;28;20192;-80
2020/12/15 04:17:43;;;;;;;2.77;2.27;;;;;;;4.04;83.29;95078.44;5077277;28;20176;-78
2020/12/15 04:20:08;;;;;;;2.90;2.60;;;;;;;4.10;83.01;95077.16;5073252;28;20675;-78
2020/12/15 04:22:33;;;;;;;2.77;2.40;;;;;;;4.06;82.72;95071.41;5065471;28;20189;-79
2020/12/15 04:25:00;;;;;;;2.53;1.87;;;;;;;4.14;82.07;95063.91;5056733;28;20193;-78
2020/12/15 04:27:26;;;;;;;2.90;2.00;;;;;;;4.21;82.29;95075.34;5057190;28;20223;-78
2020/12/15 04:29:51;;;;;;;1.83;1.70;;;;;;;4.36;81.95;95067.38;5056399;28;20185;-79
2020/12/15 04:32:17;;;;;;;2.07;1.70;;;;;;;4.41;82.09;95072.97;5074249;28;20176;-78
2020/12/15 04:34:42;;;;;;;1.43;1.23;;;;;;;4.60;81.24;95068.00;5094836;28;20185;-78
2020/12/15 04:37:07;;;;;;;1.17;1.07;;;;;;;4.60;81.12;95070.59;5076883;28;20249;-78
2020/12/15 04:39:33;;;;;;;1.47;1.37;;;;;;;4.64;81.84;95071.94;5076734;28;20218;-78
2020/12/15 04:41:58;;;;;;;1.57;1.20;;;;;;;4.78;81.37;95076.81;5072829;28;20666;-79
2020/12/15 04:44:24;;;;;;;2.10;1.00;;;;;;;4.78;81.40;95065.72;5056536;28;20205;-77
2020/12/15 04:47:15;;;;;;;0.97;0.90;;;;;;;4.92;80.89;95062.81;5039458;28;20189;-78
2020/12/15 04:49:52;;;;;;;1.00;0.90;;;;;;;5.08;79.86;95064.97;5056286;28;20785;-79
2020/12/15 04:52:23;;;;;;;0.83;0.80;;;;;;;5.20;79.10;95063.13;5065616;28;20187;-78
2020/12/15 04:54:52;;;;;;;1.17;0.90;;;;;;;5.20;79.39;95056.22;5093557;28;20279;-78
2020/12/15 04:57:21;;;;;;;1.00;0.90;;;;;;;5.22;79.16;95056.13;5076016;28;20265;-78
2020/12/15 04:59:48;;;;;;;1.20;1.03;;;;;;;5.18;79.38;95063.25;5076571;28;20548;-79
2020/12/15 05:02:13;;;;;;;1.20;1.00;;;;;;;5.29;78.99;95060.59;5069905;28;20177;-78
2020/12/15 05:04:40;;;;;;;1.50;1.00;;;;;;;5.36;78.80;95050.63;5059343;28;20216;-79
2020/12/15 05:07:07;;;;;;;0.80;0.80;;;;;;;5.35;79.11;95049.00;5076036;28;20168;-79
2020/12/15 05:09:33;;;;;;;1.10;0.90;;;;;;;5.38;78.78;95051.31;5059656;28;20259;-78
2020/12/15 05:11:59;;;;;;;1.00;0.90;;;;;;;5.38;79.17;95046.97;5075352;28;20238;-78
2020/12/15 05:14:25;;;;;;;1.03;0.73;;;;;;;5.40;78.84;95042.53;5049596;28;20676;-78
2020/12/15 05:16:51;;;;;;;1.07;0.90;;;;;;;5.36;78.92;95038.56;5076401;28;20177;-79
2020/12/15 05:19:16;;;;;;;1.10;0.83;;;;;;;5.36;78.33;95048.84;5059159;28;20173;-79
2020/12/15 05:21:58;;;;;;;1.40;1.00;;;;;;;5.30;78.71;95054.53;5076512;28;20196;-79
2020/12/15 05:24:28;;;;;;;1.20;0.93;;;;;;;5.30;78.90;95067.41;5071923;28;20298;-78
2020/12/15 05:26:55;;;;;;;1.50;0.93;;;;;;;5.23;79.26;95074.00;5076141;28;20544;-78
2020/12/15 05:29:21;;;;;;;1.23;1.00;;;;;;;5.25;79.29;95072.13;5075663;28;20188;-79
2020/12/15 05:31:47;;;;;;;1.00;0.93;;;;;;;5.23;79.32;95061.13;5076243;28;20176;-78
2020/12/15 05:34:26;;;;;;;2.07;1.00;;;;;;;5.21;79.42;95063.03;5069025;28;20193;-79
2020/12/15 05:36:58;;;;;;;2.10;1.10;;;;;;;5.27;79.18;95069.41;5075586;28;20242;-78
2020/12/15 05:39:24;;;;;;;1.00;0.93;;;;;;;5.32;78.71;95070.66;5093452;28;20644;-78
2020/12/15 05:42:07;;;;;;;0.90;0.90;;;;;;;5.40;78.37;95057.97;5075889;28;20639;-78
2020/12/15 05:44:36;;;;;;;1.60;1.00;;;;;;;5.42;78.54;95062.19;5089702;28;20204;-78
2020/12/15 05:47:06;;;;;;;1.23;1.07;;;;;;;5.37;78.52;95065.13;5067649;28;20172;-78
2020/12/15 05:49:33;;;;;;;1.17;1.00;;;;;;;5.43;78.48;95069.78;5092214;28;20271;-78
2020/12/15 05:52:00;;;;;;;2.80;1.90;;;;;;;5.45;78.10;95056.75;5093172;28;20272;-78
2020/12/15 05:54:26;;;;;;;1.47;1.20;;;;;;;5.47;77.85;95058.25;5092374;28;20553;-79
2020/12/15 05:57:05;;;;;;;1.27;0.80;;;;;;;5.49;77.55;95068.47;5054607;28;20173;-78
2020/12/15 05:59:30;;;;;;;0.80;0.80;;;;;;;5.58;77.08;95070.25;5055323;28;20181;-78
2020/12/15 06:02:07;;;;;;;1.33;1.07;;;;;;;5.60;77.05;95070.94;5038493;28;20299;-78
2020/12/15 06:04:34;;;;;;;1.93;1.00;;;;;;;5.65;76.85;95077.34;5072268;28;20246;-79
2020/12/15 06:07:01;;;;;;;1.30;1.00;;;;;;;5.69;77.03;95080.47;5064748;28;20180;-79
2020/12/15 06:09:28;;;;;;;2.00;0.77;;;;;;;5.65;77.28;95081.66;5071614;28;20268;-79
2020/12/15 06:11:54;;;;;;;1.03;0.90;;;;;;;5.66;77.37;95083.31;5038375;28;20181;-78
2020/12/15 06:14:19;;;;;;;1.10;1.00;;;;;;;5.60;77.51;95082.06;5072793;28;20199;-78
2020/12/15 06:16:44;;;;;;;1.37;0.97;;;;;;;5.60;77.71;95073.50;5057461;28;20180;-78
2020/12/15 06:19:11;;;;;;;1.10;1.00;;;;;;;5.56;77.81;95075.50;5070421;28;20212;-78
2020/12/15 06:21:39;;;;;;;1.20;1.10;;;;;;;5.50;78.13;95072.66;5070902;28;20199;-80
2020/12/15 06:24:05;;;;;;;2.20;1.20;;;;;;;5.55;78.28;95066.16;5074652;28;20675;-80
2020/12/15 06:26:34;;;;;;;3.00;1.27;;;;;;;5.60;78.53;95052.91;5085662;28;20181;-79
2020/12/15 06:29:05;;;;;;;2.43;1.10;;;;;;;5.59;78.90;95064.16;5055837;28;20188;-78
2020/12/15 06:31:32;;;;;;;2.57;0.80;;;;;;;5.61;78.77;95062.25;5075902;28;20259;-79
2020/12/15 06:34:01;;;;;;;0.83;0.83;;;;;;;5.77;78.55;95061.78;5081547;28;20196;-81
2020/12/15 06:36:31;;;;;;;2.67;1.03;;;;;;;5.71;79.11;95059.72;5075344;28;20179;-78
2020/12/15 06:38:58;;;;;;;1.17;0.90;;;;;;;5.67;79.25;95061.75;5055872;28;20184;-79
2020/12/15 06:41:23;;;;;;;1.20;1.10;;;;;;;5.57;79.23;95055.75;5093158;28;20659;-79
2020/12/15 06:43:49;;;;;;;1.00;0.90;;;;;;;5.68;79.80;95068.53;5075066;28;20212;-79
2020/12/15 06:46:15;;;;;;;1.90;0.87;;;;;;;5.60;80.34;95069.19;5072510;28;20172;-80
2020/12/15 06:48:44;;;;;;;1.93;1.10;;;;;;;5.64;80.46;95070.53;5064161;28;20203;-79
2020/12/15 06:51:09;;;;;;;1.30;1.10;;;;;;;5.64;80.40;95064.56;5091828;28;20525;-79
2020/12/15 06:53:35;;;;;;;2.30;1.20;;;;;;;5.61;80.48;95065.66;5071824;28;20205;-78
2020/12/15 06:56:02;;;;;;;1.67;1.13;;;;;;;5.58;80.76;95068.50;5071503;28;20184;-80
2020/12/15 06:58:28;;;;;;;1.47;1.20;;;;;;;5.54;80.31;95061.13;5074443;28;20271;-78
2020/12/15 07:00:53;;;;;;;1.40;1.27;;;;;;;5.52;80.52;95069.00;5070895;28;20323;-80
2020/12/15 07:03:32;;;;;;;2.27;1.43;;;;;;;5.53;80.39;95074.97;5074458;28;20291;-81
2020/12/15 07:06:07;;;;;;;1.57;0.93;;;;;;;5.49;80.48;95071.84;5075218;28;20176;-79
2020/12/15 07:08:32;;;;;;;1.47;1.10;;;;;;;5.45;80.27;95078.19;5086000;28;20203;-78
2020/12/15 07:10:58;;;;;;;2.53;1.50;;;;;;;5.46;80.52;95081.56;5067306;28;20589;-79
2020/12/15 07:13:23;;;;;;;2.50;1.77;;;;;;;5.42;80.71;95087.94;5092302;28;20215;-79
2020/12/15 07:15:48;;;;;;;2.03;1.50;;;;;;;5.43;80.44;95089.56;5071772;28;20220;-79
2020/12/15 07:18:13;;;;;;;2.30;1.30;;;;;;;5.49;79.90;95083.91;5086330;28;20188;-79
2020/12/15 07:20:40;;;;;;;1.47;1.27;;;;;;;5.49;79.50;95086.47;5053900;28;20636;-79
2020/12/15 07:23:05;;;;;;;1.50;1.40;;;;;;;5.44;80.00;95084.28;5057121;28;20188;-78
2020/12/15 07:25:31;;;;;;;1.57;1.43;;;;;;;5.45;80.10;95088.47;5073398;28;20200;-80
2020/12/15 07:27:58;;;;;;;2.20;1.40;;;;;;;5.51;79.56;95087.16;5074640;28;20672;-79
2020/12/15 07:30:23;;;;;;;4.10;1.40;;;;;;;5.49;79.57;95089.88;5092076;28;20216;-78
2020/12/15 07:32:50;;;;;;;1.87;1.30;;;;;;;5.46;79.32;95094.44;5056135;28;20208;-80
2020/12/15 07:35:20;;;;;;;2.70;1.33;;;;;;;5.47;79.44;95090.91;5061943;28;20200;-78
2020/12/15 07:37:48;;;;;;;1.57;1.47;;;;;;;5.44;79.60;95093.75;5067160;28;20183;-80
2020/12/15 07:40:14;;;;;;;1.77;1.57;;;;;;;5.52;79.18;95092.19;5078584;28;20173;-78
2020/12/15 07:42:40;;;;;;;3.33;1.67;;;;;;;5.46;79.59;95084.97;5062121;28;20180;-80
2020/12/15 07:45:08;;;;;;;1.47;1.37;;;;;;;5.47;79.52;95090.91;5060756;28;20197;-80
2020/12/15 07:47:43;;;;;;;2.50;1.70;;;;;;;5.49;79.60;95099.38;5078427;28;20187;-80
2020/12/15 07:50:09;;;;;;;3.67;1.77;;;;;;;5.40;79.86;95111.25;5082708;28;20258;-79
2020/12/15 07:52:39;;;;;;;2.57;1.73;;;;;;;5.44;79.53;95107.44;5075166;28;20190;-79
2020/12/15 07:55:06;;;;;;;2.00;1.40;;;;;;;5.44;79.95;95106.63;5092850;28;20203;-80
2020/12/15 07:57:33;;;;;;;2.63;1.37;;;;;;;5.44;80.38;95111.78;5062198;28;20184;-79
2020/12/15 08:00:21;;;;;;;2.33;1.40;;;;;;;5.46;80.71;95115.84;5064645;28;20325;-79
2020/12/15 08:02:47;;;;;;;4.03;1.80;;;;;;;5.54;80.44;95118.63;5077694;28;20196;-78
2020/12/15 08:05:19;;;;;;;3.73;2.30;;;;;;;5.66;80.63;95117.63;5075270;28;20581;-78
2020/12/15 08:07:52;;;;;;;2.97;2.20;;;;;;;5.70;80.76;95123.31;5077989;28;20183;-78
2020/12/15 08:10:32;;;;;;;2.23;2.03;;;;;;;5.66;81.06;95124.53;5078040;28;20187;-78
2020/12/15 08:12:59;;;;;;;3.00;1.70;;;;;;;5.68;81.05;95123.44;5071248;28;20176;-77
2020/12/15 08:15:26;;;;;;;3.00;2.80;;;;;;;5.76;81.12;95127.97;5060638;28;20213;-79
2020/12/15 08:17:51;;;;;;;3.93;3.53;;;;;;;5.76;81.41;95133.13;5081420;28;20184;-77
2020/12/15 08:20:20;;;;;;;3.03;2.40;;;;;;;5.83;81.17;95141.97;5086688;28;20690;-77
2020/12/15 08:22:46;;;;;;;1.60;1.47;;;;;;;5.88;81.24;95136.41;5092788;28;20183;-76
2020/12/15 08:25:14;;;;;;;1.70;1.60;;;;;;;5.96;81.02;95139.19;5057579;28;20564;-79
2020/12/15 08:27:39;;;;;;;2.57;1.63;;;;;;;6.00;81.01;95139.75;5093257;28;20187;-78
2020/12/15 08:30:16;;;;;;;1.77;1.53;;;;;;;6.02;80.83;95137.88;5082245;28;20193;-78
2020/12/15 08:32:46;;;;;;;1.40;1.30;;;;;;;6.05;80.07;95140.19;5073317;28;20558;-77
2020/12/15 08:35:12;;;;;;;3.87;2.00;;;;;;;6.11;79.77;95134.53;5073705;28;20200;-77
2020/12/15 08:37:38;;;;;;;2.73;2.00;;;;;;;6.14;79.92;95135.06;5068462;28;20283;-77
2020/12/15 08:40:07;;;;;;;2.27;2.07;;;;;;;6.15;79.88;95133.31;5079971;28;20183;-78
2020/12/15 08:42:33;;;;;;;1.83;1.70;;;;;;;6.23;79.27;95133.47;5057592;28;20640;-79
2020/12/15 08:44:58;;;;;;;1.80;1.67;;;;;;;6.26;79.63;95135.78;5093547;28;20247;-77
2020/12/15 08:47:23;;;;;;;3.73;1.80;;;;;;;6.24;79.41;95129.94;5093905;28;20189;-78
2020/12/15 08:49:55;;;;;;;2.60;1.97;;;;;;;6.38;79.05;95134.75;5075200;28;20184;-78
2020/12/15 08:52:23;;;;;;;2.10;1.90;;;;;;;6.44;78.74;95131.59;5076748;28;20268;-77
2020/12/15 08:54:50;;;;;;;1.93;1.77;;;;;;;6.51;78.86;95131.91;5075948;28;20211;-79
2020/12/15 08:57:16;;;;;;;1.60;1.27;;;;;;;6.63;78.51;95137.78;5074142;28;20188;-77
2020/12/15 08:59:42;;;;;;;2.67;1.27;;;;;;;6.70;77.77;95138.84;5074532;28;20238;-78
2020/12/15 09:02:11;;;;;;;2.20;1.10;;;;;;;6.73;78.45;95142.00;5078926;28;20185;-78
2020/12/15 09:04:37;;;;;;;1.53;1.30;;;;;;;6.75;78.43;95139.28;5077349;28;20208;-78
2020/12/15 09:07:10;;;;;;;12.10;4.03;;;;;;;6.91;78.01;95137.00;5075179;28;20192;-78
2020/12/15 09:09:36;;;;;;;12.60;2.97;;;;;;;6.94;78.07;95141.88;5093454;28;20635;-78
2020/12/15 09:12:01;;;;;;;12.47;2.90;;;;;;;7.01;78.05;95149.91;5093451;28;20215;-78
2020/12/15 09:14:26;;;;;;;9.13;2.47;;;;;;;7.09;78.21;95158.59;5093181;28;20200;-77
2020/12/15 09:16:51;;;;;;;3.97;1.90;;;;;;;7.06;78.38;95161.44;5092755;28;20195;-78
2020/12/15 09:19:19;;;;;;;3.30;1.60;;;;;;;6.99;78.42;95156.97;5071338;28;20628;-78
2020/12/15 09:21:59;;;;;;;4.13;1.80;;;;;;;6.90;78.68;95156.00;5072802;28;20189;-77
2020/12/15 09:24:25;;;;;;;3.67;2.00;;;;;;;6.89;78.75;95162.13;5093141;28;20257;-78
2020/12/15 09:26:50;;;;;;;5.50;2.03;;;;;;;6.80;79.29;95171.50;5080694;28;20181;-77
2020/12/15 09:29:16;;;;;;;3.83;2.00;;;;;;;6.80;79.41;95168.06;5067199;28;20265;-78
2020/12/15 09:31:42;;;;;;;2.23;1.90;;;;;;;6.85;79.15;95163.34;5052385;28;20181;-78
2020/12/15 09:34:07;;;;;;;2.87;2.07;;;;;;;6.78;79.10;95167.41;5071992;28;20201;-79
2020/12/15 09:36:33;;;;;;;3.43;2.00;;;;;;;6.80;79.12;95156.00;5056775;28;20189;-76
2020/12/15 09:38:58;;;;;;;1.83;1.40;;;;;;;6.79;79.24;95153.53;5075312;28;20181;-77
2020/12/15 09:41:24;;;;;;;2.30;1.57;;;;;;;6.76;79.07;95161.56;5074843;28;20649;-77
2020/12/15 09:43:49;;;;;;;1.77;1.63;;;;;;;6.79;79.34;95163.84;5092322;28;20212;-77
2020/12/15 09:46:14;;;;;;;2.00;1.60;;;;;;;6.91;78.98;95165.38;5058562;28;20302;-76
2020/12/15 09:48:40;;;;;;;2.20;1.80;;;;;;;6.96;78.77;95159.81;5071159;28;20185;-78
2020/12/15 09:51:05;;;;;;;2.40;1.80;;;;;;;7.03;78.80;95160.91;5058285;28;20181;-77
2020/12/15 09:53:30;;;;;;;2.17;1.80;;;;;;;7.05;78.93;95170.13;5091460;28;20265;-77
2020/12/15 09:55:56;;;;;;;3.63;2.00;;;;;;;7.14;78.99;95176.25;5057880;28;20602;-78
2020/12/15 09:58:21;;;;;;;2.53;2.10;;;;;;;7.19;79.03;95175.88;5071681;28;20184;-78
2020/12/15 10:00:47;;;;;;;3.63;2.43;;;;;;;7.27;78.79;95163.09;5085894;28;20272;-78
2020/12/15 10:03:12;;;;;;;4.70;1.97;;;;;;;7.33;78.23;95167.69;5070862;28;20215;-77
2020/12/15 10:05:40;;;;;;;3.50;1.87;;;;;;;7.38;78.20;95170.69;5071266;28;20699;-79
2020/12/15 10:08:05;;;;;;;2.60;1.97;;;;;;;7.42;77.96;95168.63;5058394;28;20204;-78
2020/12/15 10:10:30;;;;;;;3.47;2.30;;;;;;;7.53;77.54;95165.91;5073730;28;20211;-78
2020/12/15 10:12:56;;;;;;;3.90;2.63;;;;;;;7.52;78.14;95159.94;5066061;28;20181;-78
2020/12/15 10:15:21;;;;;;;3.40;2.37;;;;;;;7.54;78.17;95165.78;5068526;28;20204;-77
2020/12/15 10:17:46;;;;;;;4.40;2.63;;;;;;;7.63;78.26;95159.78;5071542;28;20259;-77
2020/12/15 10:20:12;;;;;;;4.87;2.80;;;;;;;7.74;77.66;95160.56;5091866;28;20177;-78
2020/12/15 10:22:37;;;;;;;4.07;2.60;;;;;;;7.76;77.88;95154.28;5053409;28;20189;-78
2020/12/15 10:25:04;;;;;;;3.50;2.40;;;;;;;7.76;78.16;95164.63;5067585;28;20213;-78
2020/12/15 10:27:29;;;;;;;3.37;2.37;;;;;;;7.76;77.82;95164.63;5072115;28;20553;-76
2020/12/15 10:29:55;;;;;;;3.17;2.23;;;;;;;7.83;77.73;95163.13;5091684;28;20192;-77
2020/12/15 10:32:24;;;;;;;4.07;2.50;;;;;;;7.88;77.30;95166.13;5086460;28;20210;-77
2020/12/15 10:34:49;;;;;;;5.47;3.20;;;;;;;7.99;76.96;95165.13;5045593;28;20568;-78
2020/12/15 10:37:14;;;;;;;2.67;1.97;;;;;;;8.02;77.26;95161.44;5072866;28;20234;-77
2020/12/15 10:39:40;;;;;;;3.20;1.80;;;;;;;7.90;77.55;95155.63;5077859;28;20188;-76
2020/12/15 10:42:05;;;;;;;4.10;1.83;;;;;;;7.87;77.47;95161.09;5091344;28;20638;-77
2020/12/15 10:44:30;;;;;;;2.23;1.70;;;;;;;7.86;77.68;95159.44;5057571;28;20565;-78
2020/12/15 10:46:59;;;;;;;2.43;1.70;;;;;;;7.92;77.72;95164.88;5053470;28;20181;-78
2020/12/15 10:49:25;;;;;;;3.13;2.00;;;;;;;7.90;77.82;95164.19;5076133;28;20191;-78
2020/12/15 10:51:50;;;;;;;3.63;2.07;;;;;;;7.89;77.75;95165.16;5070197;28;20185;-77
2020/12/15 10:54:16;;;;;;;6.40;2.20;;;;;;;8.01;77.11;95163.22;5079477;28;20283;-77
2020/12/15 10:56:42;;;;;;;3.87;2.20;;;;;;;7.99;77.03;95165.13;5061240;28;20267;-77
2020/12/15 10:59:08;;;;;;;3.33;1.80;;;;;;;8.02;77.44;95169.19;5089937;28;20180;-77
2020/12/15 11:01:33;;;;;;;2.47;1.70;;;;;;;7.98;77.44;95171.25;5091692;28;20180;-78
2020/12/15 11:03:58;;;;;;;3.83;1.97;;;;;;;7.98;77.50;95163.50;5091021;28;20224;-78
2020/12/15 11:06:25;;;;;;;2.23;1.60;;;;;;;8.03;77.74;95170.81;5059808;28;20592;-78
2020/12/15 11:08:51;;;;;;;2.87;1.80;;;;;;;7.99;78.13;95170.31;5083096;28;20184;-78
2020/12/15 11:11:16;;;;;;;4.80;2.40;;;;;;;7.98;78.25;95168.69;5071899;28;20624;-78
2020/12/15 11:13:41;;;;;;;1.53;1.43;;;;;;;8.03;77.74;95171.63;5091530;28;20640;-77
2020/12/15 11:16:07;;;;;;;6.37;4.40;;;;;;;8.06;78.24;95173.97;5086027;28;20260;-77
2020/12/15 11:18:32;;;;;;;3.47;3.10;;;;;;;8.06;78.18;95173.16;5057847;28;20190;-78
2020/12/15 11:20:57;;;;;;;3.90;2.73;;;;;;;8.08;77.91;95166.06;5052601;28;20644;-78
2020/12/15 11:23:23;;;;;;;4.43;3.00;;;;;;;8.13;77.85;95162.09;5062704;28;20296;-78
2020/12/15 11:25:49;;;;;;;4.00;3.37;;;;;;;8.18;77.92;95156.47;5065427;28;20184;-78
2020/12/15 11:28:15;;;;;;;5.87;4.50;;;;;;;8.21;77.76;95164.75;5070719;28;20184;-78
2020/12/15 11:30:41;;;;;;;4.07;2.60;;;;;;;8.28;77.69;95153.84;5068384;28;20202;-80
2020/12/15 11:33:06;;;;;;;1.40;1.30;;;;;;;8.32;77.69;95160.38;5088875;28;20185;-77
2020/12/15 11:35:33;;;;;;;4.77;1.60;;;;;;;8.45;77.61;95153.94;5056373;28;20226;-77
2020/12/15 11:37:59;;;;;;;2.90;1.10;;;;;;;8.51;77.65;95155.16;5057717;28;20188;-78